createdAt,value
2023-04-13T00:02:19.872Z,6.41
2023-04-13T00:07:21.694Z,6.44
2023-04-13T00:12:24.678Z,6.16
2023-04-13T00:17:26.361Z,6.34
2023-04-13T00:22:28.001Z,6.55
2023-04-13T00:27:30.958Z,6.27
2023-04-13T00:32:32.661Z,6.34
2023-04-13T00:37:34.358Z,6.46
2023-04-13T00:42:37.468Z,6.47
2023-04-13T00:47:39.927Z,6.27
2023-04-13T00:52:41.897Z,6.12
2023-04-13T00:57:44.985Z,6.31
2023-04-13T01:02:46.801Z,6.70
2023-04-13T01:08:01.686Z,6.69
2023-04-13T01:13:15.723Z,6.35
2023-04-13T01:18:20.397Z,6.56
2023-04-13T01:23:29.631Z,6.70
2023-04-13T01:28:34.696Z,6.83
2023-04-13T01:33:37.821Z,6.88
2023-04-13T01:38:39.425Z,6.75
2023-04-13T01:43:42.441Z,7.13
2023-04-13T01:48:48.604Z,7.03
2023-04-13T01:53:53.187Z,6.97
2023-04-13T01:58:57.226Z,7.19
2023-04-13T02:03:59.181Z,7.36
2023-04-13T02:09:01.061Z,7.30
2023-04-13T02:14:04.124Z,7.38
2023-04-13T02:19:05.755Z,7.37
2023-04-13T02:24:09.240Z,7.28
2023-04-13T02:29:12.215Z,7.31
2023-04-13T02:34:13.804Z,7.57
2023-04-13T02:39:15.482Z,7.30
2023-04-13T02:44:18.522Z,7.41
2023-04-13T02:49:20.116Z,7.56
2023-04-13T02:54:21.885Z,7.61
2023-04-13T02:59:24.935Z,7.61
2023-04-13T03:04:26.516Z,7.64
2023-04-13T03:09:28.151Z,7.25
2023-04-13T03:14:31.117Z,7.65
2023-04-13T03:19:33.093Z,7.78
2023-04-13T03:24:34.720Z,7.78
2023-04-13T03:29:37.765Z,7.75
2023-04-13T03:34:39.412Z,7.79
2023-04-13T03:39:40.986Z,7.76
2023-04-13T03:44:43.961Z,7.91
2023-04-13T03:49:45.605Z,7.86
2023-04-13T03:54:47.393Z,7.97
2023-04-13T03:59:50.440Z,7.62
2023-04-13T04:04:52.075Z,7.84
2023-04-13T04:09:53.723Z,7.60
2023-04-13T04:14:56.713Z,7.83
2023-04-13T04:19:58.356Z,7.74
2023-04-13T04:25:00.289Z,7.68
2023-04-13T04:30:04.116Z,7.94
2023-04-13T04:35:06.366Z,7.64
2023-04-13T04:40:08.971Z,7.89
2023-04-13T04:45:12.151Z,7.79
2023-04-13T04:50:13.780Z,7.90
2023-04-13T04:55:15.540Z,7.88
2023-04-13T05:00:19.554Z,7.86
2023-04-13T05:05:21.272Z,7.89
2023-04-13T05:10:22.937Z,8.06
2023-04-13T05:15:26.457Z,8.19
2023-04-13T05:20:28.098Z,7.99
2023-04-13T05:25:29.684Z,8.10
2023-04-13T05:30:32.682Z,8.06
2023-04-13T05:35:34.455Z,8.30
2023-04-13T05:40:36.108Z,8.17
2023-04-13T05:45:41.752Z,8.58
2023-04-13T05:50:43.425Z,8.60
2023-04-13T05:55:46.176Z,8.88
2023-04-13T06:00:51.032Z,8.66
2023-04-13T06:05:52.614Z,8.71
2023-04-13T06:10:54.220Z,8.68
2023-04-13T06:15:57.226Z,8.51
2023-04-13T06:20:58.859Z,8.60
2023-04-13T06:26:00.613Z,8.78
2023-04-13T06:31:04.042Z,9.22
2023-04-13T06:36:06.453Z,9.20
2023-04-13T06:41:08.121Z,9.62
2023-04-13T06:46:11.443Z,9.50
2023-04-13T06:51:13.216Z,11.03
2023-04-13T06:56:14.864Z,18.44
2023-04-13T07:01:18.067Z,16.89
2023-04-13T07:06:22.366Z,12.63
2023-04-13T07:11:25.302Z,11.14
2023-04-13T07:16:28.465Z,11.31
2023-04-13T07:21:30.439Z,10.22
2023-04-13T07:26:32.171Z,10.40
2023-04-13T07:31:35.407Z,11.99
2023-04-13T07:36:39.080Z,10.27
2023-04-13T07:41:41.339Z,10.65
2023-04-13T07:46:45.189Z,11.22
2023-04-13T07:51:50.317Z,11.25
2023-04-13T07:56:54.422Z,12.40
2023-04-13T08:01:58.126Z,11.60
2023-04-13T08:07:03.125Z,13.88
2023-04-13T08:12:05.106Z,12.05
2023-04-13T08:17:08.203Z,11.41
2023-04-13T08:22:10.119Z,11.67
2023-04-13T08:27:12.046Z,11.55
2023-04-13T08:32:15.347Z,11.15
2023-04-13T08:37:17.429Z,11.19
2023-04-13T08:42:20.298Z,10.95
2023-04-13T08:47:25.246Z,10.95
2023-04-13T08:52:28.220Z,10.95
2023-04-13T08:57:30.832Z,10.77
2023-04-13T09:02:40.588Z,11.13
2023-04-13T09:07:50.442Z,11.57
2023-04-13T09:12:52.418Z,11.57
2023-04-13T09:17:56.748Z,12.11
2023-04-13T09:23:12.090Z,13.20
2023-04-13T09:28:17.087Z,13.01
2023-04-13T09:33:20.475Z,13.10
2023-04-13T09:38:30.694Z,13.47
2023-04-13T09:43:35.910Z,13.79
2023-04-13T09:48:39.122Z,12.91
2023-04-13T09:53:47.493Z,12.60
2023-04-13T09:59:04.432Z,12.55
2023-04-13T10:04:13.257Z,12.46
2023-04-13T10:09:30.097Z,12.24
2023-04-13T10:14:57.336Z,11.88
2023-04-13T10:20:14.777Z,12.12
2023-04-13T10:25:31.568Z,12.69
2023-04-13T10:30:48.226Z,12.68
2023-04-13T10:36:03.114Z,13.01
2023-04-13T10:41:34.967Z,12.67
2023-04-13T10:46:53.007Z,13.98
2023-04-13T10:52:12.546Z,13.78
2023-04-13T10:57:17.319Z,13.52
2023-04-13T11:02:35.629Z,12.93
2023-04-13T11:07:39.105Z,12.50
2023-04-13T11:12:48.927Z,11.81
2023-04-13T11:17:52.767Z,11.07
2023-04-13T11:22:56.714Z,10.63
2023-04-13T11:28:02.930Z,10.18
2023-04-13T11:33:04.802Z,9.53
2023-04-13T11:38:16.405Z,9.66
2023-04-13T11:43:19.732Z,10.40
2023-04-13T11:48:22.450Z,10.81
2023-04-13T11:53:25.999Z,11.29
2023-04-13T11:58:28.156Z,11.24
2023-04-13T12:03:47.062Z,11.09
2023-04-13T12:09:09.393Z,10.94
2023-04-13T12:14:40.688Z,10.67
2023-04-13T12:19:43.825Z,10.99
2023-04-13T12:24:48.311Z,10.79
2023-04-13T12:29:51.161Z,10.89
2023-04-13T12:34:52.968Z,11.05
2023-04-13T12:39:55.937Z,10.59
2023-04-13T12:44:57.590Z,11.01
2023-04-13T12:49:59.228Z,11.15
2023-04-13T12:55:02.457Z,11.33
2023-04-13T13:00:05.140Z,11.52
2023-04-13T13:05:08.036Z,11.59
2023-04-13T13:10:22.111Z,11.11
2023-04-13T13:15:32.896Z,11.49
2023-04-13T13:20:39.334Z,11.91
2023-04-13T13:25:52.513Z,11.78
2023-04-13T13:31:03.955Z,11.65
2023-04-13T13:36:06.139Z,12.42
2023-04-13T13:41:09.201Z,12.89
2023-04-13T13:46:11.096Z,12.45
2023-04-13T13:51:12.791Z,12.43
2023-04-13T13:56:15.881Z,12.52
2023-04-13T14:01:18.156Z,12.79
2023-04-13T14:06:20.037Z,12.60
2023-04-13T14:11:23.409Z,12.40
2023-04-13T14:16:25.592Z,12.66
2023-04-13T14:21:27.402Z,12.73
2023-04-13T14:26:35.229Z,12.39
2023-04-13T14:31:47.207Z,12.32
2023-04-13T14:36:51.057Z,12.37
2023-04-13T14:41:56.553Z,12.39
2023-04-13T14:46:59.617Z,12.34
2023-04-13T14:52:01.510Z,12.33
2023-04-13T14:57:04.641Z,12.16
2023-04-13T15:02:06.374Z,11.77
2023-04-13T15:07:08.137Z,11.83
2023-04-13T15:12:13.116Z,11.78
2023-04-13T15:17:15.204Z,11.85
2023-04-13T15:22:16.797Z,11.96
2023-04-13T15:27:19.741Z,12.26
2023-04-13T15:32:21.562Z,12.30
2023-04-13T15:37:23.490Z,12.39
2023-04-13T15:42:26.506Z,12.59
2023-04-13T15:47:28.330Z,12.63
2023-04-13T15:52:29.897Z,12.76
2023-04-13T15:57:33.065Z,12.67
2023-04-13T16:02:35.367Z,12.73
2023-04-13T16:07:37.978Z,12.62
2023-04-13T16:12:40.982Z,12.53
2023-04-13T16:17:42.684Z,12.28
2023-04-13T16:22:46.153Z,12.08
2023-04-13T16:27:49.151Z,12.06
2023-04-13T16:32:50.989Z,12.30
2023-04-13T16:37:52.885Z,12.36
2023-04-13T16:42:58.741Z,12.26
2023-04-13T16:48:00.606Z,12.21
2023-04-13T16:53:02.407Z,12.08
2023-04-13T16:58:05.416Z,11.90
2023-04-13T17:03:07.270Z,11.63
2023-04-13T17:08:08.947Z,11.50
2023-04-13T17:13:12.000Z,11.23
2023-04-13T17:18:13.623Z,11.03
2023-04-13T17:23:15.259Z,10.77
2023-04-13T17:28:18.235Z,10.70
2023-04-13T17:33:20.095Z,10.44
2023-04-13T17:38:21.885Z,10.34
2023-04-13T17:43:24.928Z,10.16
2023-04-13T17:48:26.539Z,9.97
2023-04-13T17:53:28.222Z,9.76
2023-04-13T17:58:31.256Z,9.57
2023-04-13T18:03:33.053Z,9.51
2023-04-13T18:08:36.183Z,9.40
2023-04-13T18:13:40.453Z,9.38
2023-04-13T18:18:42.254Z,9.43
2023-04-13T18:23:43.896Z,9.25
2023-04-13T18:28:47.072Z,9.12
2023-04-13T18:33:48.779Z,8.97
2023-04-13T18:38:50.467Z,8.84
2023-04-13T18:43:54.013Z,8.74
2023-04-13T18:48:55.712Z,8.72
2023-04-13T18:53:57.633Z,8.53
2023-04-13T18:59:00.864Z,8.43
2023-04-13T19:04:03.091Z,8.23
2023-04-13T19:09:05.069Z,8.30
2023-04-13T19:14:08.173Z,8.19
2023-04-13T19:19:09.846Z,8.09
2023-04-13T19:24:12.274Z,8.01
2023-04-13T19:29:15.600Z,7.90
2023-04-13T19:34:17.401Z,7.84
2023-04-13T19:39:19.070Z,7.69
2023-04-13T19:44:22.080Z,7.61
2023-04-13T19:49:23.821Z,7.74
2023-04-13T19:54:25.478Z,7.59
2023-04-13T19:59:28.462Z,7.49
2023-04-13T20:04:30.265Z,7.40
2023-04-13T20:09:32.065Z,7.25
2023-04-13T20:14:35.200Z,7.39
2023-04-13T20:19:36.947Z,7.10
2023-04-13T20:24:38.729Z,7.09
2023-04-13T20:29:41.821Z,7.07
2023-04-13T20:34:43.616Z,6.78
2023-04-13T20:39:45.261Z,6.82
2023-04-13T20:44:48.883Z,6.81
2023-04-13T20:49:50.554Z,6.77
2023-04-13T20:54:52.274Z,6.61
2023-04-13T20:59:55.378Z,6.61
2023-04-13T21:04:57.081Z,6.55
2023-04-13T21:09:58.734Z,6.57
2023-04-13T21:15:01.692Z,6.60
2023-04-13T21:20:03.639Z,6.55
2023-04-13T21:25:06.133Z,6.54
2023-04-13T21:30:13.101Z,6.41
2023-04-13T21:35:15.190Z,6.32
2023-04-13T21:40:17.369Z,6.18
2023-04-13T21:45:20.832Z,6.12
2023-04-13T21:50:22.588Z,5.97
2023-04-13T21:55:24.319Z,6.11
2023-04-13T22:00:27.667Z,6.01
2023-04-13T22:05:29.312Z,5.98
2023-04-13T22:10:31.012Z,5.89
2023-04-13T22:15:34.193Z,5.68
2023-04-13T22:20:35.993Z,5.68
2023-04-13T22:25:37.910Z,5.68
2023-04-13T22:30:40.853Z,5.66
2023-04-13T22:35:42.451Z,5.64
2023-04-13T22:40:44.074Z,5.53
2023-04-13T22:45:47.016Z,5.48
2023-04-13T22:50:48.702Z,5.42
2023-04-13T22:55:50.880Z,4.89
2023-04-13T23:00:53.931Z,5.12
2023-04-13T23:05:55.627Z,5.31
2023-04-13T23:10:57.275Z,5.11
2023-04-13T23:16:00.805Z,5.06
2023-04-13T23:21:08.862Z,5.13
2023-04-13T23:26:11.956Z,5.09
2023-04-13T23:31:15.091Z,5.03
2023-04-13T23:36:17.946Z,5.01
2023-04-13T23:41:19.589Z,5.03
2023-04-13T23:46:23.151Z,4.94
2023-04-13T23:51:24.844Z,4.79
2023-04-13T23:56:26.748Z,4.89
